3F3

C E 'rusty' Williams Airport

Mansfield, Louisiana, USA
METAR K3F3 210915Z AUTO 00000KT 10SM CLR M01/M02 A3034 RMK AO2 T10111024
Observed Flight Rules
Jan-21 @ 09:15 UTC (30 minutes ago) Visual Flight Rules
Visibility Clouds
10 miles
  • Clear skies
Temperatures Readings
Current -1°C / 30°F
Dewpoint -2°C / 28°F
Humidity 93%
Altimeter 30.34" Hg
Pressure 1027.42 hPa
Elevation 96
METAR K3F3 210915Z AUTO 00000KT 10SM CLR M01/M02 A3034 RMK AO2 T10111024
Observed Flight Rules
Jan-21 @ 09:15 UTC
(30 minutes ago)
VFR
Clouds
  • Clear skies
Temperature Dewpoint
-1°C / 30°F -2°C / 28°F
Humidity Altimeter Pressure
93% 30.34" Hg 1027.42 hPa